Terminal Aerodrome Forecast
Issued by NWS Shreveport, LA

Home | Current Version | Previous Version | Text Only | Print | Product List | Glossary On
Versions: 1 2 3 4 5 6 7 8 9 10 11 12 13 14 15 16 17 18 19
000
FTUS44 KSHV 300008 RRA
TAFSHV
TAF
KSHV 300008Z 3000/3024 VRB03KT P6SM SCT040 BKN050 BKN090
     FM300200 VRB03KT P6SM SCT050 BKN080 BKN250
     FM301100 04004KT 5SM BR SCT080 BKN250
     FM301300 06004KT 6SM BR SCT080 BKN250
     FM301400 05005KT P6SM SCT060 SCT250
     FM301900 05007KT P6SM BKN050 BKN100=

USA.gov is the U.S. government's official web portal to all federal, state and local government web resources and services.